Time;durP1;ratioP1;P1;durP2;ratioP2;P2;SDS_P1;SDS_P2;PMS_P1;PMS_P2;Temp;Humidity;BMP_temperature;BMP_pressure;BME280_temperature;BME280_humidity;BME280_pressure;Samples;Min_cycle;Max_cycle;Signal;HPM_P1;HPM_P2
2021/08/15 00:00:00;;;;;;;12.40;9.13;;;;;;;25.71;54.88;96806.75;5057791;28;20216;-71
2021/08/15 00:02:26;;;;;;;11.87;8.50;;;;;;;25.65;54.95;96803.22;5072802;28;20194;-70
2021/08/15 00:04:51;;;;;;;11.87;9.13;;;;;;;25.49;55.93;96801.53;5063425;28;20261;-71
2021/08/15 00:07:18;;;;;;;12.53;9.30;;;;;;;25.35;56.09;96809.16;5072641;28;20273;-70
2021/08/15 00:09:44;;;;;;;15.33;9.60;;;;;;;25.43;56.05;96792.66;5072112;28;20179;-71
2021/08/15 00:12:10;;;;;;;11.63;9.50;;;;;;;25.57;55.24;96790.31;5069503;28;20574;-70
2021/08/15 00:14:36;;;;;;;12.43;9.13;;;;;;;25.55;55.40;96785.22;5062337;28;20217;-71
2021/08/15 00:17:02;;;;;;;10.10;9.10;;;;;;;25.44;56.09;96794.28;5063068;28;20790;-73
2021/08/15 00:19:28;;;;;;;10.73;8.50;;;;;;;25.35;56.08;96790.41;5044915;28;20261;-71
2021/08/15 00:21:53;;;;;;;10.93;9.30;;;;;;;25.06;57.27;96785.38;5070799;28;20448;-70
2021/08/15 00:24:19;;;;;;;16.63;9.57;;;;;;;25.10;56.94;96789.16;5067969;28;20202;-70
2021/08/15 00:26:45;;;;;;;12.47;9.50;;;;;;;25.24;56.41;96781.50;5065028;28;20178;-71
2021/08/15 00:29:10;;;;;;;12.33;9.57;;;;;;;25.23;56.17;96778.00;5069480;28;20653;-70
2021/08/15 00:31:36;;;;;;;14.30;8.93;;;;;;;25.21;56.27;96776.63;5070727;28;20261;-71
2021/08/15 00:34:02;;;;;;;14.77;9.10;;;;;;;25.30;56.20;96778.59;5070312;28;20312;-71
2021/08/15 00:36:27;;;;;;;14.57;9.63;;;;;;;25.32;56.07;96774.84;5053422;28;20211;-71
2021/08/15 00:38:53;;;;;;;10.87;8.57;;;;;;;25.32;56.15;96770.28;5070301;28;20436;-71
2021/08/15 00:41:18;;;;;;;11.90;8.83;;;;;;;25.31;55.70;96771.34;5067177;28;20181;-71
2021/08/15 00:43:44;;;;;;;13.40;10.00;;;;;;;25.31;56.18;96771.34;5070158;28;20198;-71
2021/08/15 00:46:11;;;;;;;12.43;9.60;;;;;;;25.36;55.84;96765.19;5070474;28;20174;-71
2021/08/15 00:48:38;;;;;;;11.43;8.80;;;;;;;25.38;55.83;96763.06;5069030;28;20209;-72
2021/08/15 00:51:04;;;;;;;13.60;9.00;;;;;;;25.37;55.64;96767.66;5070257;28;20502;-71
2021/08/15 00:53:34;;;;;;;12.40;8.40;;;;;;;25.36;55.88;96762.53;5072922;28;20903;-71
2021/08/15 00:56:01;;;;;;;10.20;9.10;;;;;;;25.33;56.13;96763.06;5073702;28;20600;-71
2021/08/15 00:58:31;;;;;;;11.10;8.67;;;;;;;25.32;56.56;96758.75;5073840;28;20499;-71
2021/08/15 01:01:01;;;;;;;12.97;9.80;;;;;;;25.27;56.29;96756.81;5072682;28;20463;-71
2021/08/15 01:03:27;;;;;;;11.90;9.20;;;;;;;25.28;56.66;96756.59;5073424;28;20436;-71
2021/08/15 01:05:53;;;;;;;14.00;9.87;;;;;;;25.19;56.85;96755.47;5072274;28;20470;-72
2021/08/15 01:08:19;;;;;;;10.70;9.70;;;;;;;25.14;56.54;96758.88;5073839;28;20519;-71
2021/08/15 01:10:44;;;;;;;15.07;9.40;;;;;;;25.05;56.76;96748.91;5069173;28;20508;-70
2021/08/15 01:13:11;;;;;;;10.23;9.20;;;;;;;25.00;56.86;96750.50;5073387;28;20199;-71
2021/08/15 01:15:38;;;;;;;13.40;9.53;;;;;;;24.96;57.56;96741.34;5071840;28;20197;-71
2021/08/15 01:18:24;;;;;;;11.90;10.27;;;;;;;24.97;57.54;96745.63;5073068;28;20458;-72
2021/08/15 01:21:05;;;;;;;12.80;9.20;;;;;;;24.72;58.05;96737.38;5068284;28;20421;-71
2021/08/15 01:23:32;;;;;;;12.33;9.70;;;;;;;24.75;58.24;96736.88;5057817;28;20452;-71
2021/08/15 01:26:00;;;;;;;9.67;8.73;;;;;;;24.68;58.22;96734.38;5073576;28;20791;-70
2021/08/15 01:28:26;;;;;;;11.10;9.50;;;;;;;24.51;58.61;96732.63;5072067;28;20413;-71
2021/08/15 01:30:51;;;;;;;13.13;10.20;;;;;;;24.21;58.96;96722.41;5072024;28;20497;-70
2021/08/15 01:33:27;;;;;;;13.00;10.87;;;;;;;23.82;60.65;96719.84;5072840;28;20274;-71
2021/08/15 01:35:54;;;;;;;15.83;9.80;;;;;;;23.92;60.41;96722.63;5072252;28;20708;-71
2021/08/15 01:38:21;;;;;;;18.10;11.10;;;;;;;24.05;59.58;96721.47;5071985;28;20432;-71
2021/08/15 01:40:47;;;;;;;12.70;10.40;;;;;;;24.01;59.75;96723.84;5069806;28;20417;-71
2021/08/15 01:43:12;;;;;;;13.20;10.03;;;;;;;23.74;60.60;96727.22;5072340;28;20508;-71
2021/08/15 01:45:38;;;;;;;15.33;10.37;;;;;;;23.77;60.24;96725.91;5073082;28;20236;-71
2021/08/15 01:48:04;;;;;;;11.77;9.60;;;;;;;23.90;59.59;96719.41;5063778;28;20235;-71
2021/08/15 01:50:29;;;;;;;11.70;9.37;;;;;;;23.91;59.43;96715.66;5069933;28;20179;-70
2021/08/15 01:52:55;;;;;;;10.50;9.27;;;;;;;23.92;59.16;96715.41;5072954;28;20203;-71
2021/08/15 01:55:20;;;;;;;11.30;10.07;;;;;;;24.00;59.03;96716.06;5064092;28;20194;-70
2021/08/15 01:57:46;;;;;;;14.93;10.07;;;;;;;23.91;59.61;96716.47;5072881;28;20243;-72
2021/08/15 02:00:12;;;;;;;11.07;9.67;;;;;;;23.95;59.20;96719.44;5072659;28;20174;-70
2021/08/15 02:02:42;;;;;;;14.70;10.03;;;;;;;23.43;61.18;96716.16;5072356;28;20197;-71
2021/08/15 02:05:08;;;;;;;10.80;9.67;;;;;;;23.57;60.91;96718.44;5072312;28;20559;-71
2021/08/15 02:07:34;;;;;;;16.57;9.60;;;;;;;23.61;60.48;96712.38;5069587;28;20428;-71
2021/08/15 02:09:59;;;;;;;11.70;10.40;;;;;;;23.62;60.43;96719.34;5066122;28;20421;-71
2021/08/15 02:12:25;;;;;;;14.70;10.03;;;;;;;23.44;61.00;96717.75;5070944;28;20198;-71
2021/08/15 02:14:51;;;;;;;13.33;9.10;;;;;;;23.49;61.00;96717.03;5070900;28;20186;-70
2021/08/15 02:17:16;;;;;;;10.90;9.30;;;;;;;23.55;60.91;96712.56;5072706;28;20269;-71
2021/08/15 02:19:42;;;;;;;14.90;9.47;;;;;;;23.54;60.75;96716.28;5064289;28;20171;-71
2021/08/15 02:22:07;;;;;;;11.70;10.00;;;;;;;23.44;61.08;96712.41;5072409;28;20186;-71
2021/08/15 02:24:33;;;;;;;10.87;9.00;;;;;;;23.44;61.23;96717.75;5067796;28;20209;-70
2021/08/15 02:26:59;;;;;;;12.50;9.13;;;;;;;23.40;61.32;96713.16;5053077;28;20551;-70
2021/08/15 02:29:24;;;;;;;15.43;10.03;;;;;;;23.36;61.13;96720.84;5054841;28;20178;-71
2021/08/15 02:31:50;;;;;;;10.37;8.73;;;;;;;23.34;61.06;96712.28;5072541;28;20190;-72
2021/08/15 02:34:15;;;;;;;13.93;9.23;;;;;;;23.44;60.26;96712.41;5070379;28;20554;-70
2021/08/15 02:36:41;;;;;;;10.43;8.80;;;;;;;23.42;60.49;96714.53;5067091;28;20227;-71
2021/08/15 02:39:07;;;;;;;13.30;10.27;;;;;;;23.20;60.80;96711.00;5060580;28;20199;-71
2021/08/15 02:41:32;;;;;;;12.73;9.87;;;;;;;23.16;60.90;96716.81;5068657;28;20221;-70
2021/08/15 02:43:58;;;;;;;13.93;10.00;;;;;;;23.15;61.18;96715.22;5063691;28;20294;-70
2021/08/15 02:46:23;;;;;;;11.90;9.70;;;;;;;23.09;61.16;96723.38;5071578;28;20224;-70
2021/08/15 02:48:49;;;;;;;18.70;10.43;;;;;;;22.99;61.55;96724.03;5072352;28;20178;-71
2021/08/15 02:51:14;;;;;;;11.37;9.80;;;;;;;;;;5071848;28;20201;-71
2021/08/15 02:53:40;;;;;;;12.27;9.90;;;;;;;22.79;62.62;96722.69;5071643;28;20194;-71
2021/08/15 02:56:05;;;;;;;13.47;10.10;;;;;;;22.93;62.29;96722.34;5070327;28;20236;-71
2021/08/15 02:58:31;;;;;;;12.20;10.33;;;;;;;22.75;62.71;96718.88;5071692;28;20174;-71
2021/08/15 03:00:57;;;;;;;11.80;10.60;;;;;;;22.74;62.86;96719.91;5072093;28;20243;-71
2021/08/15 03:03:22;;;;;;;19.83;11.00;;;;;;;22.77;62.68;96723.94;5063130;28;20202;-71
2021/08/15 03:05:48;;;;;;;15.90;10.60;;;;;;;22.84;62.20;96720.06;5071801;28;20548;-70
2021/08/15 03:08:14;;;;;;;24.60;19.93;;;;;;;22.73;62.99;96720.97;5071436;28;20212;-70
2021/08/15 03:10:39;;;;;;;34.53;21.47;;;;;;;22.77;63.16;96722.09;5062051;28;20175;-70
2021/08/15 03:13:06;;;;;;;24.13;18.27;;;;;;;22.66;63.65;96723.00;5071214;28;20206;-70
2021/08/15 03:15:32;;;;;;;18.27;15.33;;;;;;;22.71;63.71;96717.72;5070808;28;20270;-70
2021/08/15 03:17:58;;;;;;;16.73;12.77;;;;;;;22.94;63.18;96710.59;5070445;28;20416;-70
2021/08/15 03:20:24;;;;;;;15.97;12.30;;;;;;;22.90;63.42;96712.94;5057906;28;20437;-70
2021/08/15 03:22:50;;;;;;;16.70;11.63;;;;;;;22.83;64.04;96706.97;5069339;28;20512;-70
2021/08/15 03:25:15;;;;;;;14.30;12.13;;;;;;;23.01;63.44;96708.56;5070813;28;20181;-70
2021/08/15 03:27:41;;;;;;;14.27;11.87;;;;;;;23.15;62.91;96701.03;5071449;28;20269;-71
2021/08/15 03:30:07;;;;;;;12.87;11.43;;;;;;;23.19;62.87;96698.69;5040812;28;20693;-72
2021/08/15 03:32:32;;;;;;;13.33;11.10;;;;;;;23.10;62.98;96695.63;5057370;28;20199;-71
2021/08/15 03:34:58;;;;;;;12.80;11.13;;;;;;;23.11;63.28;96699.91;5051032;28;20204;-71
2021/08/15 03:37:24;;;;;;;12.43;11.20;;;;;;;23.02;63.82;96686.16;5053770;28;20242;-71
2021/08/15 03:39:49;;;;;;;14.10;12.03;;;;;;;23.02;63.73;96694.97;5057050;28;20270;-71
2021/08/15 03:42:15;;;;;;;20.80;11.20;;;;;;;23.14;63.18;96680.69;5051102;28;20181;-70
2021/08/15 03:44:40;;;;;;;17.23;12.10;;;;;;;23.10;63.48;96683.06;5057177;28;20547;-71
2021/08/15 03:47:06;;;;;;;17.00;11.13;;;;;;;23.08;63.09;96684.34;5049437;28;20241;-71
2021/08/15 03:49:31;;;;;;;13.00;11.37;;;;;;;23.06;63.37;96679.25;5051017;28;20189;-70
2021/08/15 03:51:57;;;;;;;13.03;11.60;;;;;;;22.99;63.55;96686.63;5050637;28;20209;-71
2021/08/15 03:54:23;;;;;;;16.13;11.53;;;;;;;22.94;63.73;96686.53;5057340;28;20727;-71
2021/08/15 03:56:49;;;;;;;13.80;11.90;;;;;;;22.90;64.11;96683.56;5049608;28;20207;-72
2021/08/15 03:59:16;;;;;;;16.10;11.17;;;;;;;22.90;64.01;96680.09;5050927;28;20179;-71
2021/08/15 04:01:42;;;;;;;13.73;12.10;;;;;;;22.81;64.48;96685.81;5051948;28;20414;-70
2021/08/15 04:04:07;;;;;;;12.23;11.03;;;;;;;22.57;65.39;96685.19;5049049;28;20437;-70
2021/08/15 04:06:34;;;;;;;16.47;11.60;;;;;;;22.65;64.70;96679.44;5063289;28;20408;-70
2021/08/15 04:09:01;;;;;;;13.50;11.53;;;;;;;22.62;64.79;96679.13;5054466;28;20185;-71
2021/08/15 04:11:28;;;;;;;13.43;10.60;;;;;;;22.63;64.62;96670.84;5050718;28;20421;-71
2021/08/15 04:13:53;;;;;;;12.00;10.80;;;;;;;22.64;64.33;96674.34;5054345;28;20932;-71
2021/08/15 04:16:19;;;;;;;17.43;10.40;;;;;;;22.65;64.19;96678.66;5061058;28;20449;-70
2021/08/15 04:18:45;;;;;;;12.10;10.60;;;;;;;22.61;64.25;96682.84;5050868;28;20187;-70
2021/08/15 04:21:10;;;;;;;15.53;10.83;;;;;;;22.63;64.26;96678.88;5056309;28;20261;-71
2021/08/15 04:23:36;;;;;;;14.20;10.67;;;;;;;22.67;64.11;96676.53;5050578;28;20438;-70
2021/08/15 04:26:02;;;;;;;14.93;10.57;;;;;;;22.58;64.57;96677.97;5060115;28;20179;-71
2021/08/15 04:28:28;;;;;;;15.53;10.93;;;;;;;22.83;63.86;96672.25;5053708;28;20316;-70
2021/08/15 04:30:54;;;;;;;13.70;10.30;;;;;;;22.95;63.15;96669.47;5049802;28;20214;-70
2021/08/15 04:33:21;;;;;;;12.13;10.90;;;;;;;22.97;63.10;96664.69;5055757;28;20685;-70
2021/08/15 04:35:47;;;;;;;13.53;11.90;;;;;;;23.02;62.96;96656.75;5054146;28;20207;-71
2021/08/15 04:38:13;;;;;;;15.30;11.33;;;;;;;23.04;62.82;96665.34;5063823;28;20438;-71
2021/08/15 04:40:38;;;;;;;17.63;11.37;;;;;;;23.02;63.29;96667.44;5061188;28;20421;-71
2021/08/15 04:43:04;;;;;;;14.13;10.77;;;;;;;23.01;63.31;96665.81;5062466;28;20199;-70
2021/08/15 04:45:29;;;;;;;23.70;11.77;;;;;;;23.05;63.05;96666.97;5054092;28;20175;-70
2021/08/15 04:47:55;;;;;;;14.50;11.60;;;;;;;23.06;63.17;96665.88;5054260;28;20179;-70
2021/08/15 04:50:21;;;;;;;13.60;10.83;;;;;;;23.09;63.11;96665.41;5054069;28;20656;-70
2021/08/15 04:52:46;;;;;;;14.03;11.93;;;;;;;23.04;63.19;96668.00;5060283;28;20206;-71
2021/08/15 04:55:13;;;;;;;12.77;11.47;;;;;;;23.12;63.13;96667.59;5056048;28;20700;-71
2021/08/15 04:57:39;;;;;;;14.50;11.63;;;;;;;23.17;62.82;96670.34;5052973;28;20171;-70
2021/08/15 05:00:05;;;;;;;14.87;12.50;;;;;;;23.22;62.98;96666.97;5070877;28;20519;-71
2021/08/15 05:02:31;;;;;;;22.20;13.83;;;;;;;23.21;63.13;96676.03;5047500;28;20215;-70
2021/08/15 05:04:56;;;;;;;13.20;11.90;;;;;;;23.28;63.03;96676.66;5053898;28;20478;-71
2021/08/15 05:07:22;;;;;;;17.23;12.27;;;;;;;23.29;62.99;96677.47;5056911;28;20192;-70
2021/08/15 05:09:48;;;;;;;14.33;11.60;;;;;;;23.24;62.97;96685.41;5059672;28;20269;-71
2021/08/15 05:12:13;;;;;;;18.13;11.97;;;;;;;23.35;62.63;96681.81;5053711;28;20244;-71
2021/08/15 05:14:39;;;;;;;17.17;12.40;;;;;;;23.49;62.61;96673.44;5061799;28;20250;-70
2021/08/15 05:17:06;;;;;;;15.13;11.80;;;;;;;23.57;62.11;96670.31;5061706;28;20670;-71
2021/08/15 05:19:32;;;;;;;11.97;10.80;;;;;;;23.66;61.93;96679.53;5045349;28;20237;-71
2021/08/15 05:21:58;;;;;;;16.37;11.90;;;;;;;23.78;61.58;96684.75;5053622;28;20449;-71
2021/08/15 05:24:23;;;;;;;15.30;11.80;;;;;;;23.87;61.30;96677.91;5053246;28;20461;-70
2021/08/15 05:26:49;;;;;;;19.67;11.53;;;;;;;23.88;60.96;96674.16;5053833;28;20184;-70
2021/08/15 05:29:15;;;;;;;17.47;12.40;;;;;;;23.98;60.90;96684.19;5053237;28;20182;-71
2021/08/15 05:31:40;;;;;;;11.80;10.60;;;;;;;24.09;60.49;96693.16;5047066;28;20175;-71
2021/08/15 05:34:06;;;;;;;13.53;10.80;;;;;;;24.26;59.63;96684.22;5052979;28;20293;-71
2021/08/15 05:36:31;;;;;;;16.33;12.40;;;;;;;24.27;59.53;96683.94;5053825;28;20520;-72
2021/08/15 05:38:57;;;;;;;15.17;11.10;;;;;;;24.43;59.06;96690.25;5053622;28;20197;-71
2021/08/15 05:41:22;;;;;;;13.10;11.70;;;;;;;24.55;58.65;96687.41;5058651;28;20669;-71
2021/08/15 05:43:48;;;;;;;15.60;11.17;;;;;;;24.69;58.61;96693.19;5067118;28;20199;-71
2021/08/15 05:46:13;;;;;;;16.40;11.73;;;;;;;24.67;58.15;96685.38;5075718;28;20174;-70
2021/08/15 05:48:39;;;;;;;13.60;11.67;;;;;;;24.65;57.89;96692.03;5074122;28;20648;-71
2021/08/15 05:51:06;;;;;;;12.93;11.50;;;;;;;24.60;58.24;96695.47;5066606;28;20243;-70
2021/08/15 05:53:32;;;;;;;13.50;11.30;;;;;;;24.64;58.62;96699.28;5073292;28;20197;-70
2021/08/15 05:55:58;;;;;;;12.10;10.90;;;;;;;24.63;58.92;96694.19;5073995;28;20828;-70
2021/08/15 05:58:24;;;;;;;18.60;10.60;;;;;;;24.22;60.58;96698.09;5073410;28;20262;-70
2021/08/15 06:00:49;;;;;;;12.17;10.97;;;;;;;24.93;58.88;96692.81;5072871;28;20182;-71
2021/08/15 06:03:15;;;;;;;10.80;9.70;;;;;;;25.71;57.16;96686.84;5055857;28;20200;-70
2021/08/15 06:05:41;;;;;;;11.10;9.90;;;;;;;26.47;54.27;96686.50;5072878;28;20650;-70
2021/08/15 06:08:07;;;;;;;10.03;9.10;;;;;;;26.83;52.54;96684.66;5072520;28;20225;-70
2021/08/15 06:10:33;;;;;;;16.00;9.50;;;;;;;26.97;51.49;96673.31;5060817;28;20174;-70
2021/08/15 06:12:59;;;;;;;13.73;9.30;;;;;;;26.98;51.51;96674.94;5072808;28;20194;-70
2021/08/15 06:15:24;;;;;;;13.73;9.23;;;;;;;27.13;51.01;96674.91;5072341;28;20509;-70
2021/08/15 06:17:50;;;;;;;17.30;8.90;;;;;;;27.27;51.09;96669.78;5029698;28;20183;-70
2021/08/15 06:20:15;;;;;;;10.20;8.40;;;;;;;27.39;50.58;96666.75;5058415;28;20189;-69
2021/08/15 06:22:43;;;;;;;11.27;9.13;;;;;;;27.38;50.13;96673.22;5072394;28;20198;-70
2021/08/15 06:25:10;;;;;;;10.40;9.30;;;;;;;27.52;49.47;96668.13;5071907;28;20190;-70
2021/08/15 06:27:36;;;;;;;13.13;10.30;;;;;;;27.79;48.92;96664.19;5072392;28;20499;-70
2021/08/15 06:30:03;;;;;;;14.90;10.53;;;;;;;27.92;48.85;96675.44;5072185;28;20515;-71
2021/08/15 06:32:28;;;;;;;16.37;9.70;;;;;;;28.01;48.60;96653.03;5068536;28;20189;-70
2021/08/15 06:34:54;;;;;;;10.80;9.10;;;;;;;28.15;48.20;96657.84;5055495;28;20429;-69
2021/08/15 06:37:20;;;;;;;12.57;10.47;;;;;;;28.03;48.43;96663.56;5061643;28;20650;-70
2021/08/15 06:39:45;;;;;;;12.60;9.67;;;;;;;27.78;48.88;96653.72;5057613;28;20233;-70
2021/08/15 06:42:11;;;;;;;11.73;10.00;;;;;;;27.82;48.94;96654.78;5067901;28;20178;-72
2021/08/15 06:44:37;;;;;;;11.87;9.13;;;;;;;27.79;49.14;96655.34;5072473;28;20179;-70
2021/08/15 06:47:05;;;;;;;11.40;10.20;;;;;;;27.62;50.14;96653.00;5072544;28;20181;-70
2021/08/15 06:49:31;;;;;;;12.90;9.43;;;;;;;27.69;50.36;96646.25;5071198;28;20482;-70
2021/08/15 06:51:57;;;;;;;12.13;9.50;;;;;;;27.81;49.83;96647.78;5072250;28;20425;-70
2021/08/15 06:54:23;;;;;;;11.43;9.70;;;;;;;27.88;49.42;96656.34;5071723;28;20225;-71
2021/08/15 06:56:48;;;;;;;11.33;10.23;;;;;;;27.86;49.39;96655.81;5063579;28;20206;-71
2021/08/15 06:59:14;;;;;;;11.70;9.20;;;;;;;27.84;49.28;96652.63;5071727;28;20286;-71
2021/08/15 07:01:40;;;;;;;10.63;9.57;;;;;;;28.05;48.49;96648.72;5071816;28;20178;-71
2021/08/15 07:04:05;;;;;;;15.23;9.83;;;;;;;27.71;49.61;96649.47;5071724;28;20201;-70
2021/08/15 07:06:31;;;;;;;11.90;8.80;;;;;;;27.86;48.81;96648.56;5071785;28;20177;-72
2021/08/15 07:08:56;;;;;;;10.43;9.43;;;;;;;28.21;48.11;96654.03;5072154;28;20634;-71
2021/08/15 07:11:22;;;;;;;10.50;9.40;;;;;;;28.28;48.27;96651.81;5059929;28;20187;-69
2021/08/15 07:13:47;;;;;;;11.87;9.47;;;;;;;28.44;47.45;96649.81;5071671;28;20293;-70
2021/08/15 07:16:13;;;;;;;12.07;9.40;;;;;;;28.53;46.98;96647.31;5071612;28;20218;-72
2021/08/15 07:18:39;;;;;;;11.60;9.97;;;;;;;28.35;47.56;96646.13;5066196;28;20240;-69
2021/08/15 07:21:04;;;;;;;13.27;9.20;;;;;;;28.62;47.08;96645.63;5060794;28;20205;-70
2021/08/15 07:23:30;;;;;;;11.53;9.63;;;;;;;28.93;46.46;96640.00;5067368;28;20742;-71
2021/08/15 07:25:55;;;;;;;14.73;10.97;;;;;;;28.74;47.51;96639.09;5072302;28;20262;-70
2021/08/15 07:28:21;;;;;;;16.80;10.80;;;;;;;28.70;47.41;96638.03;5071989;28;20240;-72
2021/08/15 07:30:46;;;;;;;12.37;11.17;;;;;;;28.77;47.10;96636.66;5072298;28;20640;-71
2021/08/15 07:33:12;;;;;;;16.87;11.60;;;;;;;28.84;47.27;96636.31;5054343;28;20200;-71
2021/08/15 07:35:38;;;;;;;16.60;10.83;;;;;;;29.05;46.63;96636.09;5072606;28;20226;-70
2021/08/15 07:38:04;;;;;;;13.83;11.13;;;;;;;28.98;46.65;96641.03;5064371;28;20286;-70
2021/08/15 07:40:30;;;;;;;13.67;10.50;;;;;;;29.25;45.89;96649.34;5059422;28;20183;-70
2021/08/15 07:42:56;;;;;;;11.67;10.00;;;;;;;29.44;46.01;96654.03;5065436;28;20445;-70
2021/08/15 07:45:24;;;;;;;12.70;10.80;;;;;;;29.32;46.55;96651.69;5064646;28;20499;-71
2021/08/15 07:47:50;;;;;;;17.20;10.37;;;;;;;29.84;44.34;96637.59;5078357;28;20232;-71
2021/08/15 07:50:16;;;;;;;11.80;9.20;;;;;;;29.78;45.01;96639.56;5065144;28;20418;-71
2021/08/15 07:52:41;;;;;;;20.90;10.33;;;;;;;29.88;44.56;96644.81;5072536;28;20275;-72
2021/08/15 07:55:08;;;;;;;13.40;10.50;;;;;;;30.14;44.56;96649.09;5070106;28;20641;-71
2021/08/15 07:57:33;;;;;;;18.60;10.50;;;;;;;29.56;45.40;96649.03;5070041;28;20178;-72
2021/08/15 07:59:59;;;;;;;13.30;9.90;;;;;;;30.28;43.65;96655.38;5067986;28;20422;-72
2021/08/15 08:02:25;;;;;;;12.33;9.60;;;;;;;30.42;43.70;96646.50;5079063;28;20547;-71
2021/08/15 08:04:51;;;;;;;11.43;9.50;;;;;;;30.82;42.97;96643.44;5079688;28;20200;-71
2021/08/15 08:07:19;;;;;;;15.30;10.50;;;;;;;30.71;42.63;96640.91;5079084;28;20196;-71
2021/08/15 08:09:48;;;;;;;16.70;10.47;;;;;;;30.53;43.78;96639.84;5070844;28;20796;-71
2021/08/15 08:12:15;;;;;;;10.47;9.40;;;;;;;30.75;42.71;96633.78;5073520;28;20497;-71
2021/08/15 08:14:40;;;;;;;17.20;9.77;;;;;;;30.96;42.65;96636.16;5077297;28;20493;-71
2021/08/15 08:17:07;;;;;;;9.97;8.33;;;;;;;30.75;42.86;96627.59;5079177;28;20448;-71
2021/08/15 08:19:32;;;;;;;12.27;8.60;;;;;;;31.27;41.18;96630.16;5070317;28;20178;-71
2021/08/15 08:21:58;;;;;;;10.97;9.00;;;;;;;31.17;42.19;96625.78;5061041;28;20424;-70
2021/08/15 08:24:24;;;;;;;18.93;9.63;;;;;;;31.35;42.19;96625.97;5071270;28;20221;-71
2021/08/15 08:26:49;;;;;;;12.53;9.70;;;;;;;30.86;43.27;96623.59;5072814;28;20178;-70
2021/08/15 08:29:15;;;;;;;9.63;8.63;;;;;;;31.63;41.95;96625.94;5078336;28;20665;-71
2021/08/15 08:31:40;;;;;;;11.77;10.40;;;;;;;31.61;41.68;96615.41;5090717;28;20170;-71
2021/08/15 08:34:06;;;;;;;20.43;10.00;;;;;;;31.56;41.49;96618.22;5083908;28;20198;-72
2021/08/15 08:36:32;;;;;;;12.33;9.50;;;;;;;31.28;42.08;96620.16;5092313;28;20653;-71
2021/08/15 08:38:57;;;;;;;11.60;9.00;;;;;;;31.54;41.88;96623.13;5083199;28;20195;-72
2021/08/15 08:41:23;;;;;;;11.50;8.93;;;;;;;31.49;41.77;96618.63;5078902;28;20178;-71
2021/08/15 08:43:49;;;;;;;12.70;9.33;;;;;;;31.71;40.94;96612.50;5092276;28;20198;-72
2021/08/15 08:46:15;;;;;;;11.93;9.20;;;;;;;31.97;40.40;96620.06;5091731;28;20227;-72
2021/08/15 08:48:40;;;;;;;12.37;11.00;;;;;;;32.01;40.22;96612.91;5090135;28;20175;-72
2021/08/15 08:51:07;;;;;;;8.83;8.00;;;;;;;32.11;40.53;96608.38;5090053;28;20443;-72
2021/08/15 08:53:35;;;;;;;10.00;8.30;;;;;;;32.46;39.76;96609.44;5082134;28;20448;-71
2021/08/15 08:56:01;;;;;;;11.10;8.30;;;;;;;32.53;39.40;96600.88;5089533;28;20258;-71
2021/08/15 08:58:26;;;;;;;12.73;7.93;;;;;;;32.40;40.01;96599.84;5090089;28;20558;-72
2021/08/15 09:00:52;;;;;;;10.33;9.30;;;;;;;32.19;40.08;96599.50;5090814;28;20488;-71
2021/08/15 09:03:18;;;;;;;11.43;9.10;;;;;;;32.07;40.36;96589.22;5081054;28;20359;-72
2021/08/15 09:05:54;;;;;;;11.77;9.20;;;;;;;31.75;41.24;96584.84;5089285;28;20260;-71
2021/08/15 09:08:24;;;;;;;12.27;8.37;;;;;;;31.87;40.94;96593.22;5090182;28;20189;-71
2021/08/15 09:10:50;;;;;;;12.53;9.53;;;;;;;32.05;40.97;96588.75;5077316;28;20434;-72
2021/08/15 09:13:24;;;;;;;12.00;8.60;;;;;;;31.56;41.52;96581.13;5085464;28;20433;-70
2021/08/15 09:15:56;;;;;;;11.73;9.13;;;;;;;31.46;41.43;96581.34;5085924;28;20198;-71
2021/08/15 09:18:31;;;;;;;10.70;8.03;;;;;;;32.01;40.22;96583.09;5079726;28;20436;-71
2021/08/15 09:20:57;;;;;;;9.87;8.87;;;;;;;32.85;38.44;96574.59;5070534;28;20432;-71
2021/08/15 09:23:28;;;;;;;13.80;8.90;;;;;;;32.15;39.53;96577.66;5065945;28;20440;-71
2021/08/15 09:26:11;;;;;;;12.80;8.67;;;;;;;32.24;39.37;96575.00;5066597;28;20174;-71
2021/08/15 09:28:37;;;;;;;10.43;8.10;;;;;;;32.11;40.43;96570.44;5061655;28;20416;-71
2021/08/15 09:31:18;;;;;;;13.43;9.90;;;;;;;32.78;39.87;96574.19;5074798;28;20673;-70
2021/08/15 09:33:44;;;;;;;16.70;8.20;;;;;;;32.93;38.94;96568.38;5074454;28;20476;-70
2021/08/15 09:36:10;;;;;;;11.40;8.20;;;;;;;32.70;39.35;96569.53;5075108;28;20842;-70
2021/08/15 09:38:44;;;;;;;7.90;7.20;;;;;;;33.33;37.84;96574.88;5074724;28;20551;-71
2021/08/15 09:41:26;;;;;;;16.60;8.33;;;;;;;33.27;38.25;96559.88;5054675;28;20453;-71
2021/08/15 09:44:17;;;;;;;11.03;7.70;;;;;;;33.47;37.61;96564.72;5073876;28;20816;-71
2021/08/15 09:47:06;;;;;;;10.60;7.70;;;;;;;33.44;37.96;96565.34;5061951;28;20479;-69
2021/08/15 09:49:36;;;;;;;10.47;8.07;;;;;;;33.29;38.51;96563.06;5059926;28;20418;-70
2021/08/15 09:52:03;;;;;;;14.10;8.17;;;;;;;33.39;38.57;96568.22;5070077;28;20455;-72
2021/08/15 09:54:29;;;;;;;9.60;8.60;;;;;;;33.63;37.42;96572.41;5074485;28;20440;-71
2021/08/15 09:56:56;;;;;;;12.87;8.17;;;;;;;33.62;37.81;96563.44;5067874;28;20488;-71
2021/08/15 09:59:25;;;;;;;11.93;8.47;;;;;;;33.37;37.77;96560.38;5074323;28;20416;-71
2021/08/15 10:01:55;;;;;;;9.90;7.70;;;;;;;33.11;38.27;96563.03;5075078;28;20448;-71
2021/08/15 10:04:22;;;;;;;10.40;7.77;;;;;;;33.65;37.34;96562.00;5071964;28;20967;-71
2021/08/15 10:06:50;;;;;;;10.90;7.87;;;;;;;33.92;37.25;96554.69;5073827;28;20787;-71
2021/08/15 10:09:16;;;;;;;10.63;8.00;;;;;;;34.32;36.68;96557.19;5073842;28;20784;-71
2021/08/15 10:11:43;;;;;;;14.03;8.97;;;;;;;34.47;36.36;96547.75;5060088;28;20424;-71
2021/08/15 10:14:10;;;;;;;13.30;7.77;;;;;;;33.97;37.01;96547.16;5073586;28;20677;-71
2021/08/15 10:17:02;;;;;;;14.30;7.83;;;;;;;33.94;37.55;96545.13;5073161;28;20498;-71
2021/08/15 10:20:00;;;;;;;9.03;7.97;;;;;;;33.79;37.81;96540.94;5061522;28;20426;-71
2021/08/15 10:22:29;;;;;;;12.83;7.90;;;;;;;33.77;37.66;96545.91;5072214;28;20428;-70
2021/08/15 10:24:56;;;;;;;9.80;7.73;;;;;;;34.14;36.61;96542.84;5071987;28;20893;-71
2021/08/15 10:27:40;;;;;;;11.03;7.77;;;;;;;35.21;35.05;96543.00;5072385;28;20562;-71
2021/08/15 10:30:18;;;;;;;10.90;7.53;;;;;;;35.31;35.41;96539.06;5072932;28;20848;-71
2021/08/15 10:32:55;;;;;;;13.40;7.77;;;;;;;35.50;34.38;96532.41;5072473;28;20432;-70
2021/08/15 10:35:24;;;;;;;11.93;8.03;;;;;;;34.84;35.77;96533.69;5071934;28;20543;-71
2021/08/15 10:37:52;;;;;;;12.07;7.27;;;;;;;35.44;34.73;96531.00;5071881;28;20424;-71
2021/08/15 10:40:47;;;;;;;25.67;7.70;;;;;;;35.54;34.27;96525.16;5059836;28;20559;-72
2021/08/15 10:43:22;;;;;;;10.23;7.97;;;;;;;35.86;34.34;96517.38;5071739;28;20816;-71
2021/08/15 10:46:12;;;;;;;11.20;7.73;;;;;;;34.94;35.12;96519.75;5072111;28;20442;-71
2021/08/15 10:49:06;;;;;;;13.50;8.00;;;;;;;35.40;34.70;96519.94;5058132;28;20792;-71
2021/08/15 10:51:48;;;;;;;9.57;7.67;;;;;;;35.90;33.75;96521.03;5072041;28;20412;-71
2021/08/15 10:54:26;;;;;;;12.63;8.20;;;;;;;35.23;35.34;96520.88;5071487;28;20476;-71
2021/08/15 10:56:58;;;;;;;15.33;7.90;;;;;;;35.08;35.52;96513.28;5071771;28;20476;-70
2021/08/15 10:59:34;;;;;;;18.20;8.47;;;;;;;34.49;36.60;96515.59;5069022;28;20441;-70
2021/08/15 11:02:12;;;;;;;12.17;8.00;;;;;;;33.86;37.50;96510.56;5068146;28;20409;-70
2021/08/15 11:04:39;;;;;;;11.40;8.10;;;;;;;33.67;37.80;96500.84;5057905;28;20943;-69
2021/08/15 11:07:05;;;;;;;9.03;7.63;;;;;;;33.85;37.02;96498.09;5071235;28;20417;-70
2021/08/15 11:09:54;;;;;;;15.80;8.00;;;;;;;34.22;37.02;96501.25;5060528;28;20431;-70
2021/08/15 11:12:19;;;;;;;15.03;7.53;;;;;;;34.62;36.75;96502.91;5051228;28;20940;-70
2021/08/15 11:15:22;;;;;;;10.80;7.70;;;;;;;34.25;36.77;96495.16;5070232;28;20463;-70
2021/08/15 11:18:08;;;;;;;9.37;8.03;;;;;;;35.04;35.59;96486.72;5032245;28;20191;-70
2021/08/15 11:20:43;;;;;;;12.10;7.43;;;;;;;35.54;35.16;96481.56;5038038;28;20433;-71
2021/08/15 11:23:25;;;;;;;14.63;8.03;;;;;;;35.57;34.31;96469.22;5032400;28;20448;-71